Home > Products > Valid Products > MTR

000
SAUS44 KEWX 210156 COR
MTRATT
METAR KATT 210151Z AUTO 10003KT 10SM CLR 22/15 A3003 RMK AO2 SLP162
T02220150





000
SAUS44 KEWX 210053
MTRATT
METAR KATT 210051Z AUTO 09003KT 10SM CLR 23/15 A3002 RMK AO2 SLP158
T02330150





000
SAUS44 KEWX 202352
MTRATT
METAR KATT 202351Z AUTO VRB03KT 10SM CLR 24/15 A3001 RMK AO2 SLP152
T02440150 10278 20244 55002





000
SAUS44 KEWX 202252
MTRATT
METAR KATT 202251Z AUTO 06004KT 10SM FEW050 26/15 A3000 RMK AO2
SLP150 T02610150





000
SAUS44 KEWX 202252
MTRATT
METAR KATT 202251Z AUTO 06004KT 10SM FEW050 26/15 A3000 RMK AO2
SLP150 T02610150





000
SAUS44 KEWX 202152
MTRATT
METAR KATT 202151Z AUTO 12006KT 10SM SCT050 27/15 A3000 RMK AO2
SLP150 T02720150





000
SAUS44 KEWX 202152
MTRATT
METAR KATT 202151Z AUTO 12006KT 10SM SCT050 27/15 A3000 RMK AO2
SLP150 T02720150





000
SAUS44 KEWX 202053
MTRATT
METAR KATT 202051Z AUTO 07003KT 10SM SCT050 27/14 A3001 RMK AO2
SLP153 T02720144 56022





000
SAUS44 KEWX 201952
MTRATT
METAR KATT 201951Z AUTO 00000KT 10SM SCT046 BKN060 27/16 A3003 RMK
AO2 SLP159 T02670161





000
SAUS44 KEWX 201852
MTRATT
METAR KATT 201851Z AUTO VRB03KT 10SM FEW038 27/16 A3005 RMK AO2
SLP165 T02670156





000
SAUS44 KEWX 201753
MTRATT
METAR KATT 201751Z AUTO 14005KT 10SM SCT033 26/17 A3008 RMK AO2
SLP175 T02610167 10261 20172 58008





000
SAUS44 KEWX 201653
MTRATT
METAR KATT 201651Z AUTO 10003KT 10SM FEW023 24/17 A3009 RMK AO2
SLP182 T02390167





000
SAUS44 KEWX 201552
MTRATT
METAR KATT 201551Z AUTO 11004KT 10SM CLR 22/18 A3010 RMK AO2 SLP186
T02220178





000
SAUS44 KEWX 201452
MTRATT
METAR KATT 201451Z AUTO VRB03KT 6SM HZ CLR 21/18 A3010 RMK AO2
SLP186 T02110178 53015





000
SAUS44 KEWX 201353
MTRATT
METAR KATT 201351Z AUTO 00000KT 6SM BR CLR 19/17 A3009 RMK AO2
SLP179 T01890172





000
SAUS44 KEWX 201252
MTRATT
METAR KATT 201251Z AUTO 00000KT 4SM BR CLR 17/17 A3006 RMK AO2
SLP173 T01720167





000
SAUS44 KEWX 201152
MTRATT
METAR KATT 201151Z AUTO 00000KT 6SM BR CLR 18/17 A3006 RMK AO2
SLP170 T01780167 10200 20172 53006





000
SAUS44 KEWX 201052
MTRATT
METAR KATT 201051Z AUTO 00000KT 8SM CLR 18/17 A3005 RMK AO2 SLP168
T01780167





000
SAUS44 KEWX 200953
MTRATT
METAR KATT 200951Z AUTO 00000KT 9SM FEW024 18/17 A3003 RMK AO2
SLP160 T01830167





000
SAUS44 KEWX 200953
MTRATT
METAR KATT 200951Z AUTO 00000KT 9SM FEW024 18/17 A3003 RMK AO2
SLP160 T01830167





000
SAUS44 KEWX 200945
MTRATT
SPECI KATT 200944Z AUTO 00000KT 9SM SCT024 18/17 A3003 RMK AO2
T01830167





000
SAUS44 KEWX 200945
MTRATT
SPECI KATT 200944Z AUTO 00000KT 9SM SCT024 18/17 A3003 RMK AO2
T01830167





000
SAUS44 KEWX 200906
MTRATT
SPECI KATT 200904Z AUTO 00000KT 10SM BKN025 OVC031 19/17 A3004 RMK
AO2 T01890167





000
SAUS44 KEWX 200853
MTRATT
METAR KATT 200851Z AUTO 00000KT 10SM FEW025 OVC030 19/17 A3004 RMK
AO2 SLP163 T01890167 51001





000
SAUS44 KEWX 200851
MTRATT
SPECI KATT 200849Z AUTO 00000KT 10SM OVC030 19/17 A3004 RMK AO2





000
SAUS44 KEWX 200805
MTRATT
SPECI KATT 200804Z AUTO 00000KT 10SM BKN028 BKN034 19/17 A3004 RMK
AO2 T01890167





000
SAUS44 KEWX 200805
MTRATT
SPECI KATT 200804Z AUTO 00000KT 10SM BKN028 BKN034 19/17 A3004 RMK
AO2 T01890167





000
SAUS44 KEWX 200754
MTRATT
METAR KATT 200751Z AUTO 00000KT 10SM FEW028 19/17 A3005 RMK AO2
SLP164 T01890167





000
SAUS44 KEWX 200754
MTRATT
METAR KATT 200751Z AUTO 00000KT 10SM FEW028 19/17 A3005 RMK AO2
SLP164 T01890167





000
SAUS44 KEWX 200652
MTRATT
METAR KATT 200651Z AUTO 12003KT 10SM CLR 19/17 A3004 RMK AO2 SLP162
T01940167





000
SAUS44 KEWX 200553
MTRATT
METAR KATT 200551Z AUTO 00000KT 10SM BKN038 20/17 A3004 RMK AO2
SLP165 T02000167 10244 20200 402780183 58003





000
SAUS44 KEWX 200452
MTRATT
METAR KATT 200451Z AUTO 10003KT 10SM CLR 21/17 A3005 RMK AO2 SLP167
T02060167





000
SAUS44 KEWX 200353
MTRATT
METAR KATT 200351Z AUTO 00000KT 10SM CLR 21/17 A3006 RMK AO2 SLP170
T02110167





000
SAUS44 KEWX 200252
MTRATT
METAR KATT 200251Z AUTO 07003KT 10SM CLR 22/17 A3005 RMK AO2 SLP168
T02220167 51006





000
SAUS44 KEWX 200152
MTRATT
METAR KATT 200151Z AUTO 04003KT 10SM CLR 23/17 A3005 RMK AO2 SLP168
T02280167





000
SAUS44 KEWX 200052
MTRATT
METAR KATT 200051Z AUTO VRB03KT 10SM CLR 24/17 A3005 RMK AO2 SLP166
T02390167





000
SAUS44 KEWX 192352
MTRATT
METAR KATT 192351Z AUTO VRB05KT 10SM CLR 24/16 A3003 RMK AO2 SLP162
T02440161 10278 20244 55001





000
SAUS44 KEWX 192352
MTRATT
METAR KATT 192351Z AUTO VRB05KT 10SM CLR 24/16 A3003 RMK AO2 SLP162
T02440161 10278 20244 55001





000
SAUS44 KEWX 192252
MTRATT
METAR KATT 192251Z AUTO VRB03KT 10SM SCT080 26/16 A3003 RMK AO2
SLP159 T02560161





000
SAUS44 KEWX 192252
MTRATT
METAR KATT 192251Z AUTO VRB03KT 10SM SCT080 26/16 A3003 RMK AO2
SLP159 T02560161





000
SAUS44 KEWX 192152
MTRATT
METAR KATT 192151Z AUTO VRB03KT 10SM FEW046 FEW065 27/17 A3003 RMK
AO2 SLP159 T02720167





000
SAUS44 KEWX 192052
MTRATT
METAR KATT 192051Z AUTO VRB03KT 10SM FEW038 SCT046 BKN060 26/17
A3004 RMK AO2 SLP161 T02610172 56022





000
SAUS44 KEWX 191952
MTRATT
METAR KATT 191951Z AUTO VRB03KT 10SM FEW034 SCT044 SCT070 28/18
A3005 RMK AO2 SLP167 T02780178





000
SAUS44 KEWX 191852
MTRATT
METAR KATT 191851Z AUTO 00000KT 10SM FEW034 SCT065 26/17 A3008 RMK
AO2 SLP176 T02610172





000
SAUS44 KEWX 191810
MTRATT
SPECI KATT 191809Z AUTO VRB03KT 10SM SCT030 SCT038 26/18 A3010 RMK
AO2 T02560178





000
SAUS44 KEWX 191759
MTRATT
SPECI KATT 191758Z AUTO 03006KT 10SM BKN027 BKN037 26/19 A3010 RMK
AO2 T02610189





000
SAUS44 KEWX 191753
MTRATT
METAR KATT 191751Z AUTO 00000KT 10SM SCT025 SCT030 BKN039 25/18
A3011 RMK AO2 SLP185 T02500178 10261 20183 58007





000
SAUS44 KEWX 191745
MTRATT
SPECI KATT 191744Z AUTO 13005KT 10SM BKN025 BKN030 BKN039 26/18
A3011 RMK AO2 T02610183





000
SAUS44 KEWX 191701
MTRATT
SPECI KATT 191700Z AUTO VRB03KT 10SM SCT018 SCT060 24/18 A3012 RMK
AO2 T02440183





000
SAUS44 KEWX 191652
MTRATT
METAR KATT 191651Z AUTO VRB04KT 10SM BKN018 25/19 A3012 RMK AO2
SLP189 T02500189





000
SAUS44 KEWX 191552
MTRATT
METAR KATT 191551Z AUTO VRB04KT 10SM OVC060 23/19 A3012 RMK AO2
SLP191 T02280189 $





000
SAUS44 KEWX 191528
MTRATT
SPECI KATT 191526Z AUTO VRB03KT 10SM FEW013 SCT060 23/19 A3012 RMK
AO2 T02330189 $





000
SAUS44 KEWX 191452
MTRATT
METAR KATT 191451Z AUTO VRB03KT 10SM BKN013 BKN050 22/18 A3013 RMK
AO2 SLP192 T02220183 53017 $





000
SAUS44 KEWX 191352
MTRATT
METAR KATT 191351Z AUTO 00000KT 9SM OVC012 20/18 A3011 RMK AO2
SLP187 T02000183 $





000
SAUS44 KEWX 191309
MTRATT
SPECI KATT 191308Z AUTO 00000KT 7SM BKN012 BKN045 19/18 A3009 RMK
AO2 T01890178 $





000
SAUS44 KEWX 191252
MTRATT
METAR KATT 191251Z AUTO 00000KT 6SM BR SCT012 19/17 A3009 RMK AO2
SLP179 T01890172 $





000
SAUS44 KEWX 191152
MTRATT
METAR KATT 191151Z AUTO 00000KT 10SM FEW029 19/18 A3007 RMK AO2
SLP175 T01890178 10206 20189 53003 $





000
SAUS44 KEWX 191053
MTRATT
METAR KATT 191051Z AUTO 03003KT 10SM FEW043 BKN050 19/17 A3007 RMK
AO2 SLP170 T01940172 $





000
SAUS44 KEWX 190952
MTRATT
METAR KATT 190951Z AUTO 03003KT 10SM FEW025 BKN050 20/17 A3006 RMK
AO2 SLP167 T02000172 $





000
SAUS44 KEWX 190952
MTRATT
METAR KATT 190951Z AUTO 03003KT 10SM FEW025 BKN050 20/17 A3006 RMK
AO2 SLP167 T02000172 $





000
SAUS44 KEWX 190918
MTRATT
SPECI KATT 190917Z AUTO 03003KT 10SM FEW019 SCT026 BKN047 21/17
A3006 RMK AO2 T02060167 $





000
SAUS44 KEWX 190852
MTRATT
METAR KATT 190851Z AUTO 00000KT 10SM FEW016 BKN028 OVC050 21/17
A3007 RMK AO2 SLP170 T02060172 58002 $





000
SAUS44 KEWX 190753
MTRATT
METAR KATT 190751Z AUTO 03005KT 10SM BKN016 20/17 A3007 RMK AO2
SLP173 T02000167 $





000
SAUS44 KEWX 190652
MTRATT
METAR KATT 190651Z AUTO 00000KT 10SM SCT050 20/17 A3007 RMK AO2
SLP172 T02000167 $





000
SAUS44 KEWX 190552
MTRATT
METAR KATT 190551Z AUTO 02003KT 10SM CLR 21/17 A3007 RMK AO2 SLP173
T02060167 10267 20206 403000189 50003 $





000
SAUS44 KEWX 190452
MTRATT
METAR KATT 190451Z AUTO 00000KT 10SM CLR 21/17 A3007 RMK AO2 SLP173
T02110167 $





000
SAUS44 KEWX 190452
MTRATT
METAR KATT 190451Z AUTO 00000KT 10SM CLR 21/17 A3007 RMK AO2 SLP173
T02110167 $





000
SAUS44 KEWX 190353
MTRATT
METAR KATT 190351Z AUTO 00000KT 10SM CLR 22/17 A3007 RMK AO2 SLP173
T02220167 $





000
SAUS44 KEWX 190353
MTRATT
METAR KATT 190351Z AUTO 00000KT 10SM CLR 22/17 A3007 RMK AO2 SLP173
T02220167 $





000
SAUS44 KEWX 190252
MTRATT
METAR KATT 190251Z AUTO 05003KT 10SM CLR 23/17 A3006 RMK AO2 SLP170
T02330167 53020 $





000
SAUS44 KEWX 190153
MTRATT
METAR KATT 190151Z AUTO VRB03KT 10SM CLR 24/17 A3004 RMK AO2 SLP162
T02440167 $





000
SAUS44 KEWX 190052
MTRATT
METAR KATT 190051Z AUTO VRB03KT 10SM CLR 26/17 A3002 RMK AO2 SLP154
T02560172 $





000
SAUS44 KEWX 182352
MTRATT
METAR KATT 182351Z AUTO VRB03KT 10SM CLR 27/16 A3000 RMK AO2 SLP149
T02670161 10300 20267 53001 $





000
SAUS44 KEWX 182252
MTRATT
METAR KATT 182251Z AUTO 11003KT 10SM CLR 28/16 A2999 RMK AO2 SLP145
T02830156 $





000
SAUS44 KEWX 182153 COR
MTRATT
METAR KATT 182151Z AUTO 14005KT 10SM CLR 29/16 A2999 RMK AO2 SLP145
T02940161 $





000
SAUS44 KEWX 182153 COR
MTRATT
METAR KATT 182151Z AUTO 14005KT 10SM CLR 29/16 A2999 RMK AO2 SLP145
T02940161 $





000
SAUS44 KEWX 182053
MTRATT
METAR KATT 182051Z AUTO VRB05KT 10SM FEW070 29/17 A3000 RMK AO2
SLP146 T02940172 56016 $





000
SAUS44 KEWX 181952
MTRATT
METAR KATT 181951Z AUTO VRB03KT 10SM CLR 29/17 A3001 RMK AO2 SLP149
T02940172 $





000
SAUS44 KEWX 181952
MTRATT
METAR KATT 181951Z AUTO VRB03KT 10SM CLR 29/17 A3001 RMK AO2 SLP149
T02940172 $





000
SAUS44 KEWX 181852
MTRATT
METAR KATT 181851Z AUTO 00000KT 10SM BKN060 27/18 A3002 RMK AO2
SLP157 T02720178 $





000
SAUS44 KEWX 181752
MTRATT
METAR KATT 181751Z AUTO 00000KT 10SM FEW047 FEW060 27/18 A3005 RMK
AO2 SLP164 T02670183 10283 20206 58003 $





000
SAUS44 KEWX 181652
MTRATT
METAR KATT 181651Z AUTO VRB04KT 10SM FEW021 27/21 A3006 RMK AO2
SLP167 T02720206





000
SAUS44 KEWX 181652
MTRATT
METAR KATT 181651Z AUTO VRB04KT 10SM FEW021 27/21 A3006 RMK AO2
SLP167 T02720206





000
SAUS44 KEWX 181631
MTRATT
SPECI KATT 181630Z AUTO VRB03KT 10SM FEW019 26/20 A3006 RMK AO2
T02560200





000
SAUS44 KEWX 181553
MTRATT
METAR KATT 181551Z AUTO 00000KT 10SM FEW016 BKN022 24/20 A3006 RMK
AO2 SLP171 T02440200





000
SAUS44 KEWX 181553
MTRATT
METAR KATT 181551Z AUTO 00000KT 10SM FEW016 BKN022 24/20 A3006 RMK
AO2 SLP171 T02440200





000
SAUS44 KEWX 181528
MTRATT
SPECI KATT 181527Z AUTO 00000KT 10SM BKN015 BKN022 24/21 A3006 RMK
AO2 T02390206





000
SAUS44 KEWX 181507
MTRATT
SPECI KATT 181505Z AUTO 00000KT 10SM BKN013 24/21 A3006 RMK AO2
T02390206





000
SAUS44 KEWX 181452
MTRATT
METAR KATT 181451Z AUTO 00000KT 10SM FEW013 24/20 A3006 RMK AO2
SLP167 T02390200 51016





000
SAUS44 KEWX 181452
MTRATT
METAR KATT 181451Z AUTO 00000KT 10SM FEW013 24/20 A3006 RMK AO2
SLP167 T02390200 51016





000
SAUS44 KEWX 181436
MTRATT
SPECI KATT 181435Z AUTO 00000KT 10SM FEW009 24/20 A3005 RMK AO2
T02390200





000
SAUS44 KEWX 181436
MTRATT
SPECI KATT 181435Z AUTO 00000KT 10SM FEW009 24/20 A3005 RMK AO2
T02390200





000
SAUS44 KEWX 181352
MTRATT
METAR KATT 181351Z AUTO VRB03KT 10SM OVC008 22/19 A3005 RMK AO2
SLP165 T02170194





000
SAUS44 KEWX 181252
MTRATT
METAR KATT 181251Z AUTO 00000KT 5SM BR OVC007 21/19 A3002 RMK AO2
SLP157 T02060194





000
SAUS44 KEWX 181212
MTRATT
SPECI KATT 181211Z AUTO 00000KT 10SM OVC009 21/18 A3001 RMK AO2 CIG
007V010 T02060183





000
SAUS44 KEWX 181152
MTRATT
METAR KATT 181151Z AUTO 00000KT 10SM OVC011 21/18 A3001 RMK AO2
SLP151 T02060183 10206 20189 53013





000
SAUS44 KEWX 181052
MTRATT
METAR KATT 181051Z AUTO 00000KT 10SM OVC012 20/18 A2999 RMK AO2
SLP143 T02000178





000
SAUS44 KEWX 181052
MTRATT
METAR KATT 181051Z AUTO 00000KT 10SM OVC012 20/18 A2999 RMK AO2
SLP143 T02000178





000
SAUS44 KEWX 181038
MTRATT
SPECI KATT 181036Z AUTO 00000KT 10SM BKN013 19/18 A2998 RMK AO2
T01890178





000
SAUS44 KEWX 181004
MTRATT
SPECI KATT 181002Z AUTO 00000KT 10SM SCT018 19/17 A2997 RMK AO2
T01940172





000
SAUS44 KEWX 180952
MTRATT
METAR KATT 180951Z AUTO 00000KT 10SM BKN018 20/17 A2997 RMK AO2
SLP136 T02000172





000
SAUS44 KEWX 180952
MTRATT
METAR KATT 180951Z AUTO 00000KT 10SM BKN018 20/17 A2997 RMK AO2
SLP136 T02000172





000
SAUS44 KEWX 180939
MTRATT
SPECI KATT 180937Z AUTO 00000KT 10SM OVC016 21/17 A2997 RMK AO2
T02060172





000
SAUS44 KEWX 180852
MTRATT
METAR KATT 180851Z AUTO 00000KT 10SM BKN014 OVC019 20/17 A2997 RMK
AO2 SLP135 T02000172 58002





000
SAUS44 KEWX 180805
MTRATT
SPECI KATT 180804Z AUTO 00000KT 10SM BKN016 19/17 A2997 RMK AO2
T01940172





000
SAUS44 KEWX 180752
MTRATT
METAR KATT 180751Z AUTO 00000KT 10SM FEW016 19/17 A2997 RMK AO2
SLP138 T01890172





000
SAUS44 KEWX 180752
MTRATT
METAR KATT 180751Z AUTO 00000KT 10SM FEW016 19/17 A2997 RMK AO2
SLP138 T01890172





000
SAUS44 KEWX 180652
MTRATT
METAR KATT 180651Z AUTO 00000KT 10SM CLR 20/17 A2997 RMK AO2 SLP138
T02000172





000
SAUS44 KEWX 180553
MTRATT
METAR KATT 180551Z AUTO 00000KT 10SM CLR 21/17 A2997 RMK AO2 SLP139
T02060172 10272 20206 403060161 50010





000
SAUS44 KEWX 180452
MTRATT
METAR KATT 180451Z AUTO 17003KT 10SM CLR 21/17 A2998 RMK AO2 SLP140
T02110167





000
SAUS44 KEWX 180452
MTRATT
METAR KATT 180451Z AUTO 17003KT 10SM CLR 21/17 A2998 RMK AO2 SLP140
T02110167





000
SAUS44 KEWX 180353
MTRATT
METAR KATT 180351Z AUTO 15004KT 10SM CLR 21/16 A2997 RMK AO2 SLP137
T02110156





000
SAUS44 KEWX 180253
MTRATT
METAR KATT 180251Z AUTO 00000KT 10SM CLR 22/15 A2994 RMK AO2 SLP130
T02220150 53015





    US Dept of Commerce
    National Oceanic and Atmospheric Administration
    National Weather Service
    1325 East West Highway
    Silver Spring, MD 20910
    Page Author: NWS Internet Services Team
Disclaimer
Information Quality
Credits
Glossary
Privacy Policy
Freedom of Information Act (FOIA)
About Us
Career Opportunities